sensor_id;sensor_type;location;lat;lon;timestamp;P1;durP1;ratioP1;P2;durP2;ratioP2
77217;SDS011;66214;51.302;17.068;2023-02-20T11:59:49;19.30;;;8.30;;
77217;SDS011;66214;51.302;17.068;2023-02-20T12:02:24;15.90;;;7.50;;
77217;SDS011;66214;51.302;17.068;2023-02-20T12:05:04;20.00;;;8.80;;
77217;SDS011;66214;51.302;17.068;2023-02-20T12:10:19;21.10;;;6.80;;
77217;SDS011;66214;51.302;17.068;2023-02-20T12:13:14;18.70;;;8.10;;
77217;SDS011;66214;51.302;17.068;2023-02-20T12:15:50;18.70;;;7.80;;
77217;SDS011;66214;51.302;17.068;2023-02-20T12:18:44;20.50;;;9.60;;
77217;SDS011;66214;51.302;17.068;2023-02-20T12:24:13;19.70;;;9.20;;
77217;SDS011;66214;51.302;17.068;2023-02-20T12:26:53;18.70;;;8.20;;
77217;SDS011;66214;51.302;17.068;2023-02-20T12:29:41;17.50;;;9.20;;
77217;SDS011;66214;51.302;17.068;2023-02-20T12:41:26;12.40;;;6.30;;
77217;SDS011;66214;51.302;17.068;2023-02-20T12:47:24;9.70;;;4.50;;
77217;SDS011;66214;51.302;17.068;2023-02-20T12:53:12;9.60;;;4.30;;
77217;SDS011;66214;51.302;17.068;2023-02-20T13:01:51;8.60;;;3.80;;
77217;SDS011;66214;51.302;17.068;2023-02-20T13:04:27;9.80;;;4.90;;
77217;SDS011;66214;51.302;17.068;2023-02-20T13:07:17;10.60;;;5.10;;
77217;SDS011;66214;51.302;17.068;2023-02-20T13:12:26;10.60;;;4.40;;
77217;SDS011;66214;51.302;17.068;2023-02-20T13:23:05;10.00;;;4.40;;
77217;SDS011;66214;51.302;17.068;2023-02-20T13:25:52;13.80;;;5.40;;
77217;SDS011;66214;51.302;17.068;2023-02-20T13:28:40;5.50;;;2.50;;
77217;SDS011;66214;51.302;17.068;2023-02-20T13:52:40;7.60;;;4.10;;
77217;SDS011;66214;51.302;17.068;2023-02-20T13:57:49;6.90;;;3.20;;
77217;SDS011;66214;51.302;17.068;2023-02-20T14:00:32;10.60;;;4.70;;
77217;SDS011;66214;51.302;17.068;2023-02-20T14:03:12;8.10;;;3.90;;
77217;SDS011;66214;51.302;17.068;2023-02-20T14:05:45;8.30;;;4.40;;
77217;SDS011;66214;51.302;17.068;2023-02-20T14:08:17;12.10;;;5.70;;
77217;SDS011;66214;51.302;17.068;2023-02-20T14:10:45;12.00;;;5.30;;
77217;SDS011;66214;51.302;17.068;2023-02-20T14:13:22;11.10;;;4.70;;
77217;SDS011;66214;51.302;17.068;2023-02-20T14:15:54;8.30;;;4.40;;
77217;SDS011;66214;51.302;17.068;2023-02-20T14:18:32;9.40;;;4.60;;
77217;SDS011;66214;51.302;17.068;2023-02-20T14:21:08;12.30;;;5.50;;
77217;SDS011;66214;51.302;17.068;2023-02-20T14:23:48;11.30;;;5.80;;
77217;SDS011;66214;51.302;17.068;2023-02-20T14:26:21;12.50;;;5.70;;
77217;SDS011;66214;51.302;17.068;2023-02-20T14:29:19;10.60;;;4.50;;
77217;SDS011;66214;51.302;17.068;2023-02-20T14:41:11;8.20;;;4.20;;
77217;SDS011;66214;51.302;17.068;2023-02-20T14:43:43;12.50;;;7.40;;
77217;SDS011;66214;51.302;17.068;2023-02-20T14:46:21;16.70;;;8.10;;
77217;SDS011;66214;51.302;17.068;2023-02-20T14:49:15;14.50;;;6.90;;
77217;SDS011;66214;51.302;17.068;2023-02-20T14:51:51;12.40;;;4.70;;
77217;SDS011;66214;51.302;17.068;2023-02-20T14:54:22;10.10;;;4.30;;
77217;SDS011;66214;51.302;17.068;2023-02-20T14:56:54;8.40;;;4.70;;
77217;SDS011;66214;51.302;17.068;2023-02-20T14:59:37;10.70;;;6.20;;
77217;SDS011;66214;51.302;17.068;2023-02-20T15:05:31;15.00;;;4.40;;
77217;SDS011;66214;51.302;17.068;2023-02-20T15:08:09;9.60;;;4.60;;
77217;SDS011;66214;51.302;17.068;2023-02-20T15:10:50;10.10;;;4.80;;
77217;SDS011;66214;51.302;17.068;2023-02-20T15:13:25;11.30;;;4.90;;
77217;SDS011;66214;51.302;17.068;2023-02-20T15:16:13;11.10;;;4.50;;
77217;SDS011;66214;51.302;17.068;2023-02-20T15:18:48;7.90;;;3.70;;
77217;SDS011;66214;51.302;17.068;2023-02-20T15:23:51;10.40;;;3.90;;
77217;SDS011;66214;51.302;17.068;2023-02-20T15:26:26;10.70;;;4.00;;
77217;SDS011;66214;51.302;17.068;2023-02-20T15:31:45;8.40;;;4.80;;
77217;SDS011;66214;51.302;17.068;2023-02-20T15:34:31;9.60;;;5.40;;
77217;SDS011;66214;51.302;17.068;2023-02-20T15:37:18;15.50;;;5.10;;
77217;SDS011;66214;51.302;17.068;2023-02-20T15:39:48;10.50;;;4.60;;
77217;SDS011;66214;51.302;17.068;2023-02-20T15:42:19;9.60;;;4.40;;
77217;SDS011;66214;51.302;17.068;2023-02-20T15:44:49;9.20;;;4.00;;
77217;SDS011;66214;51.302;17.068;2023-02-20T15:47:17;9.50;;;4.10;;
77217;SDS011;66214;51.302;17.068;2023-02-20T15:49:45;10.50;;;4.50;;
77217;SDS011;66214;51.302;17.068;2023-02-20T15:52:16;10.00;;;4.50;;
77217;SDS011;66214;51.302;17.068;2023-02-20T15:54:50;7.00;;;3.00;;
77217;SDS011;66214;51.302;17.068;2023-02-20T15:57:20;8.30;;;3.30;;
77217;SDS011;66214;51.302;17.068;2023-02-20T15:59:49;10.10;;;5.10;;
77217;SDS011;66214;51.302;17.068;2023-02-20T16:02:19;6.10;;;3.00;;
77217;SDS011;66214;51.302;17.068;2023-02-20T16:04:50;9.30;;;3.10;;
77217;SDS011;66214;51.302;17.068;2023-02-20T16:07:19;8.90;;;3.00;;
77217;SDS011;66214;51.302;17.068;2023-02-20T16:09:48;12.10;;;4.10;;
77217;SDS011;66214;51.302;17.068;2023-02-20T16:12:22;10.00;;;3.40;;
77217;SDS011;66214;51.302;17.068;2023-02-20T16:14:51;9.70;;;4.70;;
77217;SDS011;66214;51.302;17.068;2023-02-20T16:17:23;8.30;;;4.40;;
77217;SDS011;66214;51.302;17.068;2023-02-20T16:19:54;9.10;;;2.90;;
77217;SDS011;66214;51.302;17.068;2023-02-20T16:22:22;6.80;;;2.90;;
77217;SDS011;66214;51.302;17.068;2023-02-20T16:24:50;7.10;;;3.10;;
77217;SDS011;66214;51.302;17.068;2023-02-20T16:27:26;10.20;;;4.60;;
77217;SDS011;66214;51.302;17.068;2023-02-20T16:29:57;10.00;;;4.80;;
77217;SDS011;66214;51.302;17.068;2023-02-20T16:32:26;10.20;;;4.60;;
77217;SDS011;66214;51.302;17.068;2023-02-20T16:34:57;10.50;;;5.00;;
77217;SDS011;66214;51.302;17.068;2023-02-20T16:37:26;11.40;;;5.40;;
77217;SDS011;66214;51.302;17.068;2023-02-20T16:39:55;10.00;;;4.90;;
77217;SDS011;66214;51.302;17.068;2023-02-20T16:42:32;13.90;;;5.60;;
77217;SDS011;66214;51.302;17.068;2023-02-20T16:47:49;14.50;;;6.00;;
77217;SDS011;66214;51.302;17.068;2023-02-20T16:50:24;11.60;;;6.10;;
77217;SDS011;66214;51.302;17.068;2023-02-20T16:52:59;9.70;;;5.00;;
77217;SDS011;66214;51.302;17.068;2023-02-20T16:55:34;14.80;;;6.30;;
77217;SDS011;66214;51.302;17.068;2023-02-20T16:58:04;9.50;;;4.70;;
77217;SDS011;66214;51.302;17.068;2023-02-20T17:00:37;11.00;;;4.70;;
77217;SDS011;66214;51.302;17.068;2023-02-20T17:03:08;14.60;;;7.40;;
77217;SDS011;66214;51.302;17.068;2023-02-20T17:05:37;10.70;;;4.90;;
77217;SDS011;66214;51.302;17.068;2023-02-20T17:08:06;13.50;;;6.20;;
77217;SDS011;66214;51.302;17.068;2023-02-20T17:10:35;9.50;;;5.50;;
77217;SDS011;66214;51.302;17.068;2023-02-20T17:13:03;14.60;;;6.40;;
77217;SDS011;66214;51.302;17.068;2023-02-20T17:15:30;16.10;;;7.60;;
77217;SDS011;66214;51.302;17.068;2023-02-20T17:17:58;13.90;;;7.50;;
77217;SDS011;66214;51.302;17.068;2023-02-20T17:20:26;14.20;;;7.30;;
77217;SDS011;66214;51.302;17.068;2023-02-20T17:22:54;13.50;;;6.20;;
77217;SDS011;66214;51.302;17.068;2023-02-20T17:25:24;10.30;;;5.70;;
77217;SDS011;66214;51.302;17.068;2023-02-20T17:27:53;10.60;;;5.10;;
77217;SDS011;66214;51.302;17.068;2023-02-20T17:30:22;11.20;;;5.40;;
77217;SDS011;66214;51.302;17.068;2023-02-20T17:32:51;11.10;;;5.10;;
77217;SDS011;66214;51.302;17.068;2023-02-20T17:35:19;15.20;;;6.00;;
77217;SDS011;66214;51.302;17.068;2023-02-20T17:37:47;15.10;;;7.20;;
77217;SDS011;66214;51.302;17.068;2023-02-20T17:40:16;13.70;;;6.90;;
77217;SDS011;66214;51.302;17.068;2023-02-20T17:42:44;15.60;;;7.60;;
77217;SDS011;66214;51.302;17.068;2023-02-20T17:45:14;17.90;;;8.40;;
77217;SDS011;66214;51.302;17.068;2023-02-20T17:47:42;25.10;;;10.30;;
77217;SDS011;66214;51.302;17.068;2023-02-20T17:50:11;18.30;;;9.10;;
77217;SDS011;66214;51.302;17.068;2023-02-20T17:52:39;23.60;;;10.60;;
77217;SDS011;66214;51.302;17.068;2023-02-20T17:55:07;22.90;;;9.90;;
77217;SDS011;66214;51.302;17.068;2023-02-20T17:57:39;24.00;;;9.60;;
77217;SDS011;66214;51.302;17.068;2023-02-20T18:02:38;16.80;;;7.30;;
77217;SDS011;66214;51.302;17.068;2023-02-20T18:05:07;18.40;;;8.60;;
77217;SDS011;66214;51.302;17.068;2023-02-20T18:07:35;15.50;;;9.20;;
77217;SDS011;66214;51.302;17.068;2023-02-20T18:10:03;16.30;;;7.40;;
77217;SDS011;66214;51.302;17.068;2023-02-20T18:12:32;15.10;;;6.60;;
77217;SDS011;66214;51.302;17.068;2023-02-20T18:15:00;12.20;;;4.50;;
77217;SDS011;66214;51.302;17.068;2023-02-20T18:17:28;15.70;;;6.50;;
77217;SDS011;66214;51.302;17.068;2023-02-20T18:19:57;14.40;;;6.30;;
77217;SDS011;66214;51.302;17.068;2023-02-20T18:22:25;10.50;;;5.00;;
77217;SDS011;66214;51.302;17.068;2023-02-20T18:24:53;13.30;;;5.10;;
77217;SDS011;66214;51.302;17.068;2023-02-20T18:27:21;12.60;;;5.60;;
77217;SDS011;66214;51.302;17.068;2023-02-20T18:29:50;13.00;;;5.90;;
77217;SDS011;66214;51.302;17.068;2023-02-20T18:32:17;16.50;;;5.80;;
77217;SDS011;66214;51.302;17.068;2023-02-20T18:34:46;17.20;;;6.30;;
77217;SDS011;66214;51.302;17.068;2023-02-20T18:37:14;11.60;;;4.60;;
77217;SDS011;66214;51.302;17.068;2023-02-20T18:39:43;10.20;;;4.60;;
77217;SDS011;66214;51.302;17.068;2023-02-20T18:44:59;15.40;;;6.00;;
77217;SDS011;66214;51.302;17.068;2023-02-20T18:47:27;12.50;;;4.40;;
77217;SDS011;66214;51.302;17.068;2023-02-20T18:49:55;15.50;;;7.00;;
77217;SDS011;66214;51.302;17.068;2023-02-20T18:52:22;13.00;;;5.50;;
77217;SDS011;66214;51.302;17.068;2023-02-20T18:54:50;12.20;;;5.50;;
77217;SDS011;66214;51.302;17.068;2023-02-20T18:57:20;9.20;;;4.20;;
77217;SDS011;66214;51.302;17.068;2023-02-20T18:59:49;9.30;;;4.30;;
77217;SDS011;66214;51.302;17.068;2023-02-20T19:02:17;13.40;;;5.40;;
77217;SDS011;66214;51.302;17.068;2023-02-20T19:04:47;10.50;;;4.90;;
77217;SDS011;66214;51.302;17.068;2023-02-20T19:07:16;13.20;;;5.10;;
77217;SDS011;66214;51.302;17.068;2023-02-20T19:09:44;14.30;;;4.90;;
77217;SDS011;66214;51.302;17.068;2023-02-20T19:12:12;11.00;;;5.40;;
77217;SDS011;66214;51.302;17.068;2023-02-20T19:14:40;10.20;;;4.50;;
77217;SDS011;66214;51.302;17.068;2023-02-20T19:17:09;11.40;;;5.10;;
77217;SDS011;66214;51.302;17.068;2023-02-20T19:19:37;8.60;;;4.10;;
77217;SDS011;66214;51.302;17.068;2023-02-20T19:22:07;7.90;;;3.60;;
77217;SDS011;66214;51.302;17.068;2023-02-20T19:24:37;10.20;;;4.70;;
77217;SDS011;66214;51.302;17.068;2023-02-20T19:27:05;12.90;;;5.30;;
77217;SDS011;66214;51.302;17.068;2023-02-20T19:29:34;9.60;;;3.40;;
77217;SDS011;66214;51.302;17.068;2023-02-20T19:32:02;6.20;;;2.50;;
77217;SDS011;66214;51.302;17.068;2023-02-20T19:34:30;10.60;;;4.70;;
77217;SDS011;66214;51.302;17.068;2023-02-20T19:36:58;7.00;;;3.10;;
77217;SDS011;66214;51.302;17.068;2023-02-20T19:39:26;7.80;;;2.90;;
77217;SDS011;66214;51.302;17.068;2023-02-20T19:41:55;9.90;;;3.50;;
77217;SDS011;66214;51.302;17.068;2023-02-20T19:44:23;10.50;;;3.60;;
77217;SDS011;66214;51.302;17.068;2023-02-20T19:46:51;9.50;;;3.00;;
77217;SDS011;66214;51.302;17.068;2023-02-20T19:49:20;12.30;;;3.40;;
77217;SDS011;66214;51.302;17.068;2023-02-20T19:51:51;11.30;;;4.90;;
77217;SDS011;66214;51.302;17.068;2023-02-20T19:54:26;11.20;;;3.50;;
77217;SDS011;66214;51.302;17.068;2023-02-20T19:56:58;7.70;;;2.60;;
77217;SDS011;66214;51.302;17.068;2023-02-20T19:59:28;5.20;;;1.80;;
77217;SDS011;66214;51.302;17.068;2023-02-20T20:01:57;7.60;;;2.70;;
77217;SDS011;66214;51.302;17.068;2023-02-20T20:04:28;7.40;;;2.80;;
77217;SDS011;66214;51.302;17.068;2023-02-20T20:06:59;6.40;;;2.70;;
77217;SDS011;66214;51.302;17.068;2023-02-20T20:09:29;8.10;;;3.10;;
77217;SDS011;66214;51.302;17.068;2023-02-20T20:11:57;7.10;;;2.40;;
77217;SDS011;66214;51.302;17.068;2023-02-20T20:14:25;7.00;;;2.80;;
77217;SDS011;66214;51.302;17.068;2023-02-20T20:16:53;8.70;;;2.90;;
77217;SDS011;66214;51.302;17.068;2023-02-20T20:19:21;8.00;;;2.60;;
77217;SDS011;66214;51.302;17.068;2023-02-20T20:21:49;8.40;;;3.20;;
77217;SDS011;66214;51.302;17.068;2023-02-20T20:24:17;8.40;;;3.00;;
77217;SDS011;66214;51.302;17.068;2023-02-20T20:26:45;9.10;;;2.70;;
77217;SDS011;66214;51.302;17.068;2023-02-20T20:29:13;6.90;;;2.20;;
77217;SDS011;66214;51.302;17.068;2023-02-20T20:31:41;4.50;;;1.50;;
77217;SDS011;66214;51.302;17.068;2023-02-20T20:34:09;8.70;;;3.00;;
77217;SDS011;66214;51.302;17.068;2023-02-20T20:36:37;4.30;;;1.80;;
77217;SDS011;66214;51.302;17.068;2023-02-20T20:39:05;4.80;;;1.70;;
77217;SDS011;66214;51.302;17.068;2023-02-20T20:41:33;10.50;;;3.10;;
77217;SDS011;66214;51.302;17.068;2023-02-20T20:44:01;4.40;;;1.60;;
77217;SDS011;66214;51.302;17.068;2023-02-20T20:46:35;6.60;;;2.30;;
77217;SDS011;66214;51.302;17.068;2023-02-20T20:49:03;5.90;;;2.00;;
77217;SDS011;66214;51.302;17.068;2023-02-20T20:51:31;7.60;;;1.80;;
77217;SDS011;66214;51.302;17.068;2023-02-20T20:57:23;6.80;;;2.10;;
77217;SDS011;66214;51.302;17.068;2023-02-20T20:59:52;5.90;;;2.00;;
77217;SDS011;66214;51.302;17.068;2023-02-20T21:02:22;5.20;;;2.40;;
77217;SDS011;66214;51.302;17.068;2023-02-20T21:04:51;4.80;;;1.90;;
77217;SDS011;66214;51.302;17.068;2023-02-20T21:07:20;5.90;;;2.80;;
77217;SDS011;66214;51.302;17.068;2023-02-20T21:09:48;4.70;;;1.90;;
77217;SDS011;66214;51.302;17.068;2023-02-20T21:12:17;4.40;;;1.80;;
77217;SDS011;66214;51.302;17.068;2023-02-20T21:14:45;4.60;;;1.70;;
77217;SDS011;66214;51.302;17.068;2023-02-20T21:17:13;6.50;;;2.50;;
77217;SDS011;66214;51.302;17.068;2023-02-20T21:19:41;8.30;;;2.40;;
77217;SDS011;66214;51.302;17.068;2023-02-20T21:22:09;6.30;;;2.90;;
77217;SDS011;66214;51.302;17.068;2023-02-20T21:27:42;5.70;;;2.00;;
77217;SDS011;66214;51.302;17.068;2023-02-20T21:30:10;3.50;;;1.50;;
77217;SDS011;66214;51.302;17.068;2023-02-20T21:32:38;4.40;;;1.70;;
77217;SDS011;66214;51.302;17.068;2023-02-20T21:35:06;6.00;;;2.00;;
77217;SDS011;66214;51.302;17.068;2023-02-20T21:37:34;4.30;;;2.10;;
